Time;durP1;ratioP1;P1;durP2;ratioP2;P2;SDS_P1;SDS_P2;PMS_P1;PMS_P2;Temp;Humidity;BMP_temperature;BMP_pressure;BME280_temperature;BME280_humidity;BME280_pressure;Samples;Min_cycle;Max_cycle;Signal;HPM_P1;HPM_P2
2023/07/22 00:01:42;;;;;;;;;;;22.10;49.40;;;;;;5102719;28;19924;-57
2023/07/22 00:04:08;;;;;;;;;;;22.10;49.30;;;;;;5088311;28;19939;-57
2023/07/22 00:06:35;;;;;;;;;;;22.10;49.40;;;;;;5092082;28;19924;-57
2023/07/22 00:09:03;;;;;;;;;;;22.10;49.30;;;;;;5089630;28;19931;-56
2023/07/22 00:11:30;;;;;;;;;;;22.10;49.40;;;;;;5090445;28;20319;-57
2023/07/22 00:13:56;;;;;;;;;;;22.10;49.40;;;;;;5110944;28;20191;-57
2023/07/22 00:16:25;;;;;;;;;;;22.10;49.40;;;;;;5086733;28;19924;-57
2023/07/22 00:18:51;;;;;;;;;;;22.10;49.40;;;;;;5091206;28;19931;-55
2023/07/22 00:21:18;;;;;;;;;;;22.10;49.40;;;;;;5106548;28;19924;-57
2023/07/22 00:23:46;;;;;;;;;;;22.10;49.40;;;;;;5091035;28;19972;-56
2023/07/22 00:26:12;;;;;;;;;;;22.00;49.30;;;;;;5104962;28;19963;-57
2023/07/22 00:28:39;;;;;;;;;;;22.10;49.40;;;;;;5085833;28;19973;-57
2023/07/22 00:31:06;;;;;;;;;;;22.10;49.40;;;;;;5082029;28;19928;-56
2023/07/22 00:33:34;;;;;;;;;;;22.10;49.40;;;;;;5101349;28;19945;-56
2023/07/22 00:36:01;;;;;;;;;;;22.10;49.40;;;;;;5089404;28;20015;-56
2023/07/22 00:38:28;;;;;;;;;;;22.00;49.30;;;;;;5088310;28;19927;-56
2023/07/22 00:40:54;;;;;;;;;;;22.00;49.30;;;;;;5087810;28;20265;-56
2023/07/22 00:43:21;;;;;;;;;;;22.00;49.30;;;;;;5108182;28;19927;-56
2023/07/22 00:45:48;;;;;;;;;;;22.00;49.30;;;;;;5111075;28;19950;-55
2023/07/22 00:48:14;;;;;;;;;;;22.00;49.30;;;;;;5089924;28;19923;-57
2023/07/22 00:50:43;;;;;;;;;;;22.00;49.30;;;;;;5087502;28;19924;-58
2023/07/22 00:53:10;;;;;;;;;;;22.00;49.30;;;;;;5102728;28;19938;-58
2023/07/22 00:55:37;;;;;;;;;;;22.00;49.30;;;;;;5094939;28;19963;-57
2023/07/22 00:58:03;;;;;;;;;;;22.00;49.30;;;;;;5104224;28;19924;-58
2023/07/22 01:00:30;;;;;;;;;;;22.00;49.30;;;;;;5089564;28;19932;-58
2023/07/22 01:02:57;;;;;;;;;;;22.00;49.40;;;;;;5106840;28;19924;-59
2023/07/22 01:05:24;;;;;;;;;;;22.00;49.30;;;;;;5102358;28;19973;-58
2023/07/22 01:07:53;;;;;;;;;;;22.00;49.30;;;;;;5102829;28;19924;-58
2023/07/22 01:10:19;;;;;;;;;;;22.00;49.40;;;;;;5091708;28;19930;-57
2023/07/22 01:12:46;;;;;;;;;;;22.00;49.30;;;;;;5084355;28;19991;-58
2023/07/22 01:15:13;;;;;;;;;;;22.00;49.30;;;;;;5092302;28;19972;-56
2023/07/22 01:17:40;;;;;;;;;;;22.00;49.30;;;;;;5101569;28;20436;-55
2023/07/22 01:20:09;;;;;;;;;;;22.00;49.30;;;;;;5092392;28;19969;-56
2023/07/22 01:22:36;;;;;;;;;;;22.00;49.30;;;;;;5106757;28;19963;-56
2023/07/22 01:25:04;;;;;;;;;;;22.00;49.30;;;;;;5087738;28;19924;-56
2023/07/22 01:27:31;;;;;;;;;;;22.00;49.30;;;;;;5084334;28;20312;-56
2023/07/22 01:29:58;;;;;;;;;;;22.00;49.30;;;;;;5103184;28;19965;-56
2023/07/22 01:32:25;;;;;;;;;;;22.00;49.30;;;;;;5099815;28;19931;-57
2023/07/22 01:34:52;;;;;;;;;;;22.00;49.30;;;;;;5102910;28;19934;-57
2023/07/22 01:37:19;;;;;;;;;;;21.90;49.20;;;;;;5088241;28;19973;-56
2023/07/22 01:39:46;;;;;;;;;;;21.90;49.20;;;;;;5082916;28;20030;-56
2023/07/22 01:42:14;;;;;;;;;;;21.90;49.10;;;;;;5088344;28;19924;-57
2023/07/22 01:44:41;;;;;;;;;;;21.90;49.10;;;;;;5092252;28;19973;-57
2023/07/22 01:47:08;;;;;;;;;;;21.90;49.10;;;;;;5080238;28;20196;-57
2023/07/22 01:49:35;;;;;;;;;;;21.90;49.10;;;;;;5103864;28;19928;-56
2023/07/22 01:52:01;;;;;;;;;;;21.90;49.10;;;;;;5102962;28;20265;-56
2023/07/22 01:54:28;;;;;;;;;;;21.90;49.10;;;;;;5087224;28;19924;-56
2023/07/22 01:56:55;;;;;;;;;;;21.90;49.10;;;;;;5101226;28;19924;-58
2023/07/22 01:59:23;;;;;;;;;;;21.90;49.00;;;;;;5101313;28;20385;-56
2023/07/22 02:01:51;;;;;;;;;;;21.90;49.00;;;;;;5087143;28;19961;-55
2023/07/22 02:04:18;;;;;;;;;;;21.90;49.00;;;;;;5080979;28;19928;-56
2023/07/22 02:06:45;;;;;;;;;;;21.90;49.00;;;;;;5108010;28;19928;-56
2023/07/22 02:09:13;;;;;;;;;;;21.90;49.00;;;;;;5098968;28;20328;-58
2023/07/22 02:11:40;;;;;;;;;;;21.90;49.00;;;;;;5090498;28;19931;-58
2023/07/22 02:14:07;;;;;;;;;;;21.90;49.00;;;;;;5104619;28;19931;-57
2023/07/22 02:16:36;;;;;;;;;;;21.90;49.00;;;;;;5107915;28;19946;-58
2023/07/22 02:19:03;;;;;;;;;;;21.90;49.00;;;;;;5104920;28;19923;-57
2023/07/22 02:21:30;;;;;;;;;;;21.90;49.00;;;;;;5100248;28;19925;-56
2023/07/22 02:23:56;;;;;;;;;;;21.90;49.00;;;;;;5084570;28;19932;-55
2023/07/22 02:26:23;;;;;;;;;;;21.90;48.90;;;;;;5110436;28;19930;-58
2023/07/22 02:28:50;;;;;;;;;;;21.90;49.00;;;;;;5108061;28;20369;-56
2023/07/22 02:31:17;;;;;;;;;;;21.80;48.80;;;;;;5103421;28;19928;-57
2023/07/22 02:33:46;;;;;;;;;;;21.80;48.80;;;;;;5095812;28;19931;-57
2023/07/22 02:36:13;;;;;;;;;;;21.80;48.90;;;;;;5111802;28;19954;-57
2023/07/22 02:38:40;;;;;;;;;;;21.80;48.80;;;;;;5092309;28;19928;-57
2023/07/22 02:41:07;;;;;;;;;;;21.80;48.80;;;;;;5106799;28;19963;-56
2023/07/22 02:43:34;;;;;;;;;;;21.80;48.80;;;;;;5081869;28;19924;-58
2023/07/22 02:46:03;;;;;;;;;;;21.80;48.80;;;;;;5090517;28;19924;-58
2023/07/22 02:48:29;;;;;;;;;;;21.80;48.80;;;;;;5107530;28;19938;-58
2023/07/22 02:51:02;;;;;;;;;;;21.80;48.80;;;;;;5104923;28;19924;-58
2023/07/22 02:53:29;;;;;;;;;;;21.80;48.70;;;;;;5093720;28;19931;-57
2023/07/22 02:55:56;;;;;;;;;;;21.80;48.70;;;;;;5110636;27;19924;-58
2023/07/22 02:58:22;;;;;;;;;;;21.80;48.70;;;;;;5088126;28;19987;-57
2023/07/22 03:00:49;;;;;;;;;;;21.80;48.70;;;;;;5093070;28;19972;-56
2023/07/22 03:03:16;;;;;;;;;;;21.80;48.70;;;;;;5095422;28;19939;-56
2023/07/22 03:05:43;;;;;;;;;;;21.80;48.70;;;;;;5107581;28;19932;-57
2023/07/22 03:08:11;;;;;;;;;;;21.80;48.70;;;;;;5107229;28;19927;-57
2023/07/22 03:10:38;;;;;;;;;;;21.70;48.60;;;;;;5092780;28;19942;-57
2023/07/22 03:13:05;;;;;;;;;;;21.70;48.60;;;;;;5104414;28;19924;-57
2023/07/22 03:15:31;;;;;;;;;;;21.70;48.60;;;;;;5104772;28;19930;-57
2023/07/22 03:17:59;;;;;;;;;;;21.70;48.60;;;;;;5104078;28;19931;-57
2023/07/22 03:20:25;;;;;;;;;;;21.70;48.60;;;;;;5106532;28;19924;-56
2023/07/22 03:22:52;;;;;;;;;;;21.70;48.60;;;;;;5090847;28;19930;-57
2023/07/22 03:25:21;;;;;;;;;;;21.70;48.60;;;;;;5092102;28;19928;-57
2023/07/22 03:27:47;;;;;;;;;;;21.70;48.50;;;;;;5095328;28;19931;-57
2023/07/22 03:30:15;;;;;;;;;;;21.70;48.50;;;;;;5093632;28;19950;-57
2023/07/22 03:32:42;;;;;;;;;;;21.70;48.50;;;;;;5108174;28;19931;-57
2023/07/22 03:35:10;;;;;;;;;;;21.70;48.50;;;;;;5092859;28;20388;-57
2023/07/22 03:37:37;;;;;;;;;;;21.70;48.50;;;;;;5084393;28;19924;-55
2023/07/22 03:40:07;;;;;;;;;;;21.70;48.50;;;;;;5088870;28;19924;-57
2023/07/22 03:42:35;;;;;;;;;;;21.70;48.50;;;;;;5093450;28;20007;-57
2023/07/22 03:45:02;;;;;;;;;;;21.70;48.50;;;;;;5091560;28;19924;-57
2023/07/22 03:47:28;;;;;;;;;;;21.70;48.50;;;;;;5082159;28;19924;-57
2023/07/22 03:49:55;;;;;;;;;;;21.70;48.50;;;;;;5092403;28;19927;-57
2023/07/22 03:52:22;;;;;;;;;;;21.70;48.50;;;;;;5088282;28;19968;-58
2023/07/22 03:54:49;;;;;;;;;;;21.70;48.50;;;;;;5105552;28;19924;-58
2023/07/22 03:57:15;;;;;;;;;;;21.70;48.40;;;;;;5104065;28;19924;-57
2023/07/22 03:59:44;;;;;;;;;;;21.70;48.50;;;;;;5104772;28;19972;-57
2023/07/22 04:02:10;;;;;;;;;;;21.70;48.50;;;;;;5104303;28;20075;-57
2023/07/22 04:04:37;;;;;;;;;;;21.60;48.40;;;;;;5111666;28;19969;-57
2023/07/22 04:07:07;;;;;;;;;;;21.60;48.40;;;;;;5085507;28;20014;-56
2023/07/22 04:09:34;;;;;;;;;;;21.60;48.40;;;;;;5107111;28;19924;-56
2023/07/22 04:12:01;;;;;;;;;;;21.60;48.40;;;;;;5090782;28;19924;-57
2023/07/22 04:14:27;;;;;;;;;;;21.60;48.40;;;;;;5100540;28;19928;-56
2023/07/22 04:16:56;;;;;;;;;;;21.60;48.40;;;;;;5101767;28;19924;-56
2023/07/22 04:19:22;;;;;;;;;;;21.60;48.40;;;;;;5090745;28;19928;-56
2023/07/22 04:21:49;;;;;;;;;;;21.60;48.40;;;;;;5091532;28;19988;-56
2023/07/22 04:24:16;;;;;;;;;;;21.60;48.40;;;;;;5106830;28;19946;-56
2023/07/22 04:26:43;;;;;;;;;;;21.60;48.40;;;;;;5089819;28;19924;-56
2023/07/22 04:29:11;;;;;;;;;;;21.60;48.40;;;;;;5108772;28;20308;-57
2023/07/22 04:31:38;;;;;;;;;;;21.60;48.40;;;;;;5087896;28;20368;-58
2023/07/22 04:34:07;;;;;;;;;;;21.60;48.40;;;;;;5088361;28;20348;-56
2023/07/22 04:36:34;;;;;;;;;;;21.60;48.40;;;;;;5092801;28;19931;-57
2023/07/22 04:39:01;;;;;;;;;;;21.60;48.50;;;;;;5104174;28;20256;-57
2023/07/22 04:41:27;;;;;;;;;;;21.60;48.50;;;;;;5094727;28;19923;-57
2023/07/22 04:43:54;;;;;;;;;;;21.60;48.50;;;;;;5109927;28;19923;-57
2023/07/22 04:46:21;;;;;;;;;;;21.60;48.50;;;;;;5099169;27;19931;-58
2023/07/22 04:48:48;;;;;;;;;;;21.60;48.50;;;;;;5092634;28;19970;-56
2023/07/22 04:51:16;;;;;;;;;;;21.60;48.50;;;;;;5093602;28;19931;-58
2023/07/22 04:53:43;;;;;;;;;;;21.60;48.60;;;;;;5077450;28;19924;-58
2023/07/22 04:56:10;;;;;;;;;;;21.60;48.60;;;;;;5110116;28;19935;-57
2023/07/22 04:58:36;;;;;;;;;;;21.60;48.60;;;;;;5102035;28;19946;-58
2023/07/22 05:01:03;;;;;;;;;;;21.60;48.60;;;;;;5091704;28;19927;-57
2023/07/22 05:03:30;;;;;;;;;;;21.60;48.60;;;;;;5109009;27;19935;-56
2023/07/22 05:05:57;;;;;;;;;;;21.60;48.70;;;;;;5107514;28;20384;-55
2023/07/22 05:08:25;;;;;;;;;;;21.60;48.70;;;;;;5097910;28;19924;-55
2023/07/22 05:10:53;;;;;;;;;;;21.60;48.70;;;;;;5082375;28;19924;-55
2023/07/22 05:13:20;;;;;;;;;;;21.60;48.70;;;;;;5101350;28;19943;-57
2023/07/22 05:15:46;;;;;;;;;;;21.60;48.80;;;;;;5103471;28;19924;-58
2023/07/22 05:18:13;;;;;;;;;;;21.60;48.70;;;;;;5092859;28;19923;-57
2023/07/22 05:20:40;;;;;;;;;;;21.60;48.80;;;;;;5087549;28;19932;-57
2023/07/22 05:23:07;;;;;;;;;;;21.60;48.80;;;;;;5082968;28;19924;-55
2023/07/22 05:25:35;;;;;;;;;;;21.60;48.80;;;;;;5102742;28;19932;-57
2023/07/22 05:28:02;;;;;;;;;;;21.60;48.80;;;;;;5086652;28;19952;-58
2023/07/22 05:30:29;;;;;;;;;;;21.60;48.80;;;;;;5093701;28;19997;-58
2023/07/22 05:32:56;;;;;;;;;;;21.60;49.40;;;;;;5092579;28;19928;-57
2023/07/22 05:35:23;;;;;;;;;;;21.60;48.80;;;;;;5106343;27;19927;-58
2023/07/22 05:37:50;;;;;;;;;;;21.60;48.90;;;;;;5083604;28;20014;-58
2023/07/22 05:40:17;;;;;;;;;;;21.60;48.90;;;;;;5085592;28;19931;-57
2023/07/22 05:42:45;;;;;;;;;;;21.60;48.90;;;;;;5103426;28;19939;-57
2023/07/22 05:45:15;;;;;;;;;;;21.60;48.90;;;;;;5092987;28;19923;-58
2023/07/22 05:47:41;;;;;;;;;;;21.60;49.00;;;;;;5088237;28;19924;-56
2023/07/22 05:50:08;;;;;;;;;;;21.60;49.00;;;;;;5093548;28;19928;-57
2023/07/22 05:52:36;;;;;;;;;;;21.60;49.00;;;;;;5107305;28;19931;-57
2023/07/22 05:55:03;;;;;;;;;;;21.60;49.00;;;;;;5109755;28;19924;-57
2023/07/22 05:57:29;;;;;;;;;;;21.60;49.00;;;;;;5090137;28;19931;-57
2023/07/22 05:59:57;;;;;;;;;;;21.60;49.00;;;;;;5092558;28;19924;-55
2023/07/22 06:02:24;;;;;;;;;;;21.60;49.00;;;;;;5086652;28;19924;-57
2023/07/22 06:04:51;;;;;;;;;;;21.60;49.10;;;;;;5087864;28;19978;-56
2023/07/22 06:07:18;;;;;;;;;;;21.60;49.10;;;;;;5110562;28;19930;-56
2023/07/22 06:09:45;;;;;;;;;;;21.60;49.10;;;;;;5114704;28;19930;-57
2023/07/22 06:12:12;;;;;;;;;;;21.60;49.10;;;;;;5114648;28;19942;-56
2023/07/22 06:14:39;;;;;;;;;;;21.60;49.10;;;;;;5082240;28;20014;-56
2023/07/22 06:17:07;;;;;;;;;;;21.60;49.10;;;;;;5111447;28;19924;-57
2023/07/22 06:19:34;;;;;;;;;;;21.60;49.10;;;;;;5110353;28;19920;-55
2023/07/22 06:22:01;;;;;;;;;;;21.60;49.10;;;;;;5105576;28;19966;-55
2023/07/22 06:24:28;;;;;;;;;;;21.60;49.10;;;;;;5092623;28;19928;-57
2023/07/22 06:26:54;;;;;;;;;;;21.60;49.20;;;;;;5085526;28;19932;-57
2023/07/22 06:29:21;;;;;;;;;;;21.60;49.20;;;;;;5094396;28;19924;-56
2023/07/22 06:31:48;;;;;;;;;;;21.60;49.20;;;;;;5094312;28;19924;-56
2023/07/22 06:34:16;;;;;;;;;;;21.60;49.20;;;;;;5086534;28;20314;-57
2023/07/22 06:36:43;;;;;;;;;;;21.60;49.20;;;;;;5107379;28;19930;-56
2023/07/22 06:39:10;;;;;;;;;;;21.60;49.20;;;;;;5100301;28;19927;-56
2023/07/22 06:41:36;;;;;;;;;;;21.60;49.30;;;;;;5109475;28;20055;-57
2023/07/22 06:44:03;;;;;;;;;;;21.60;49.30;;;;;;5101856;28;19924;-56
2023/07/22 06:46:30;;;;;;;;;;;21.60;49.30;;;;;;5088732;28;19924;-55
2023/07/22 06:48:59;;;;;;;;;;;21.60;49.30;;;;;;5090949;28;19924;-54
2023/07/22 06:51:28;;;;;;;;;;;21.60;49.30;;;;;;5108032;28;20014;-57
2023/07/22 06:53:55;;;;;;;;;;;21.60;49.30;;;;;;5088496;28;19924;-57
2023/07/22 06:56:21;;;;;;;;;;;21.60;49.30;;;;;;5087430;28;19951;-55
2023/07/22 06:58:48;;;;;;;;;;;21.60;49.40;;;;;;5102965;28;19924;-58
2023/07/22 07:01:15;;;;;;;;;;;21.60;49.40;;;;;;5105367;28;19924;-58
2023/07/22 07:03:42;;;;;;;;;;;21.60;49.40;;;;;;5090820;28;19932;-57
2023/07/22 07:06:08;;;;;;;;;;;21.60;49.40;;;;;;5089934;28;19932;-57
2023/07/22 07:08:37;;;;;;;;;;;21.60;49.40;;;;;;5088185;28;19931;-58
2023/07/22 07:11:04;;;;;;;;;;;21.60;49.40;;;;;;5106713;28;19923;-56
2023/07/22 07:13:31;;;;;;;;;;;21.60;49.50;;;;;;5088238;28;19924;-57
2023/07/22 07:15:57;;;;;;;;;;;21.60;49.50;;;;;;5110786;28;20356;-58
2023/07/22 07:18:24;;;;;;;;;;;21.60;49.50;;;;;;5086014;28;19920;-57
2023/07/22 07:20:51;;;;;;;;;;;21.60;49.50;;;;;;5105930;28;19935;-58
2023/07/22 07:23:18;;;;;;;;;;;21.60;49.50;;;;;;5083662;28;19924;-57
2023/07/22 07:25:46;;;;;;;;;;;21.60;49.60;;;;;;5109328;28;19931;-57
2023/07/22 07:28:14;;;;;;;;;;;21.60;49.60;;;;;;5090593;28;19928;-57
2023/07/22 07:30:41;;;;;;;;;;;21.60;49.50;;;;;;5089814;28;20014;-56
2023/07/22 07:33:08;;;;;;;;;;;21.70;49.60;;;;;;5107750;28;19935;-58
2023/07/22 07:35:35;;;;;;;;;;;21.70;49.60;;;;;;5094297;28;19931;-58
2023/07/22 07:38:01;;;;;;;;;;;21.70;49.60;;;;;;5091892;28;19972;-58
2023/07/22 07:40:28;;;;;;;;;;;21.70;49.60;;;;;;5109898;28;19931;-58
2023/07/22 07:42:56;;;;;;;;;;;21.70;49.60;;;;;;5091595;28;19932;-58
2023/07/22 07:45:23;;;;;;;;;;;21.70;49.60;;;;;;5091499;28;19932;-57
2023/07/22 07:47:50;;;;;;;;;;;21.70;49.60;;;;;;5103261;28;19928;-58
2023/07/22 07:50:17;;;;;;;;;;;21.70;49.60;;;;;;5088210;28;19923;-58
2023/07/22 07:52:43;;;;;;;;;;;21.70;49.60;;;;;;5109585;28;19931;-57
2023/07/22 07:55:13;;;;;;;;;;;21.70;49.60;;;;;;5086056;28;19928;-57
2023/07/22 07:57:40;;;;;;;;;;;21.70;50.10;;;;;;5104601;28;19925;-56
2023/07/22 08:00:09;;;;;;;;;;;21.70;49.60;;;;;;5098876;28;19931;-57
2023/07/22 08:02:36;;;;;;;;;;;21.70;49.50;;;;;;5100317;28;19959;-57
2023/07/22 08:05:03;;;;;;;;;;;21.70;49.50;;;;;;5098935;28;19971;-57
2023/07/22 08:07:30;;;;;;;;;;;21.70;49.50;;;;;;5082084;28;19959;-57
2023/07/22 08:09:58;;;;;;;;;;;21.70;49.40;;;;;;5104635;28;20014;-55
2023/07/22 08:12:24;;;;;;;;;;;21.70;49.40;;;;;;5092065;28;19930;-56
2023/07/22 08:14:53;;;;;;;;;;;21.70;49.40;;;;;;5108095;28;19924;-54
2023/07/22 08:17:21;;;;;;;;;;;21.70;49.30;;;;;;5110224;28;19923;-56
2023/07/22 08:19:48;;;;;;;;;;;21.70;49.30;;;;;;5093863;28;19924;-56
2023/07/22 08:22:14;;;;;;;;;;;21.70;49.30;;;;;;5089844;28;19924;-56
2023/07/22 08:24:41;;;;;;;;;;;21.70;49.30;;;;;;5089399;28;19927;-58
2023/07/22 08:27:08;;;;;;;;;;;21.70;49.30;;;;;;5093658;28;19924;-56
2023/07/22 08:29:35;;;;;;;;;;;21.70;49.30;;;;;;5087314;28;19931;-57
2023/07/22 08:32:02;;;;;;;;;;;21.70;49.30;;;;;;5100745;28;19924;-57
2023/07/22 08:34:30;;;;;;;;;;;21.70;49.30;;;;;;5101813;28;19928;-58
2023/07/22 08:36:57;;;;;;;;;;;21.70;49.30;;;;;;5111173;27;19931;-56
2023/07/22 08:39:24;;;;;;;;;;;21.70;49.30;;;;;;5104702;28;20023;-56
2023/07/22 08:41:51;;;;;;;;;;;21.70;49.30;;;;;;5092563;28;19924;-55
2023/07/22 08:44:19;;;;;;;;;;;21.80;49.30;;;;;;5084415;28;19959;-57
2023/07/22 08:46:46;;;;;;;;;;;21.80;49.20;;;;;;5107568;28;19926;-57
2023/07/22 08:49:13;;;;;;;;;;;21.80;49.10;;;;;;5090342;28;20014;-57
2023/07/22 08:51:41;;;;;;;;;;;21.80;49.00;;;;;;5105443;28;19992;-56
2023/07/22 08:54:08;;;;;;;;;;;21.80;48.90;;;;;;5104897;28;19924;-57
2023/07/22 08:56:35;;;;;;;;;;;21.80;48.90;;;;;;5082203;28;19928;-57
2023/07/22 08:59:02;;;;;;;;;;;21.80;48.80;;;;;;5089650;28;19930;-56
2023/07/22 09:01:29;;;;;;;;;;;21.80;48.70;;;;;;5090438;28;19928;-56
2023/07/22 09:03:56;;;;;;;;;;;21.80;48.70;;;;;;5093403;28;19924;-57
2023/07/22 09:06:23;;;;;;;;;;;21.80;48.60;;;;;;5109377;28;19924;-58
2023/07/22 09:08:52;;;;;;;;;;;21.80;48.60;;;;;;5106335;28;19932;-57
2023/07/22 09:11:19;;;;;;;;;;;21.80;48.60;;;;;;5084309;28;19923;-55
2023/07/22 09:13:46;;;;;;;;;;;21.80;48.60;;;;;;5093584;28;19984;-57
2023/07/22 09:16:13;;;;;;;;;;;21.80;48.50;;;;;;5098678;28;19931;-57
2023/07/22 09:18:40;;;;;;;;;;;21.80;48.50;;;;;;5086358;28;19936;-58
2023/07/22 09:21:07;;;;;;;;;;;21.80;48.40;;;;;;5083293;28;19981;-57
2023/07/22 09:23:34;;;;;;;;;;;21.80;48.40;;;;;;5097205;28;19943;-58
2023/07/22 09:26:10;;;;;;;;;;;21.80;48.30;;;;;;5080134;28;19931;-57
2023/07/22 09:28:48;;;;;;;;;;;21.80;48.20;;;;;;5097019;28;19939;-59
2023/07/22 09:31:15;;;;;;;;;;;21.80;48.30;;;;;;5090881;28;19932;-58
2023/07/22 09:33:41;;;;;;;;;;;21.80;48.30;;;;;;5092263;28;19924;-58
2023/07/22 09:36:08;;;;;;;;;;;21.80;48.30;;;;;;5104616;28;19931;-57
2023/07/22 09:38:35;;;;;;;;;;;21.90;48.40;;;;;;5092058;28;19959;-58
2023/07/22 09:41:02;;;;;;;;;;;21.90;48.30;;;;;;5088854;28;19931;-56
2023/07/22 09:43:30;;;;;;;;;;;21.90;48.30;;;;;;5082692;28;19932;-57
2023/07/22 09:45:57;;;;;;;;;;;21.90;48.20;;;;;;5088696;28;19928;-57
2023/07/22 09:48:25;;;;;;;;;;;21.90;48.10;;;;;;5101877;28;19924;-58
2023/07/22 09:50:56;;;;;;;;;;;21.90;48.00;;;;;;5086863;28;19924;-57
2023/07/22 09:53:23;;;;;;;;;;;21.90;47.90;;;;;;5087620;28;19932;-56
2023/07/22 09:55:50;;;;;;;;;;;21.90;47.90;;;;;;5097009;28;19924;-55
2023/07/22 09:58:17;;;;;;;;;;;21.90;47.70;;;;;;5085156;28;19930;-56
2023/07/22 10:00:47;;;;;;;;;;;21.90;47.70;;;;;;5085351;28;19980;-57
2023/07/22 10:03:13;;;;;;;;;;;21.90;47.60;;;;;;5080719;28;19942;-57
2023/07/22 10:05:41;;;;;;;;;;;21.90;47.60;;;;;;5108947;28;19968;-58
2023/07/22 10:08:07;;;;;;;;;;;21.90;47.50;;;;;;5105409;28;20308;-57
2023/07/22 10:10:35;;;;;;;;;;;21.90;47.40;;;;;;5101822;28;19931;-57
2023/07/22 10:13:01;;;;;;;;;;;21.90;47.40;;;;;;5083809;28;19967;-57
2023/07/22 10:15:29;;;;;;;;;;;21.90;47.40;;;;;;5104155;28;19947;-58
2023/07/22 10:17:57;;;;;;;;;;;21.90;47.40;;;;;;5089344;28;19928;-57
2023/07/22 10:20:24;;;;;;;;;;;21.90;47.40;;;;;;5092517;28;19924;-57
2023/07/22 10:22:51;;;;;;;;;;;21.90;47.40;;;;;;5096043;28;19923;-57
2023/07/22 10:25:18;;;;;;;;;;;21.90;47.40;;;;;;5080787;28;19953;-57
2023/07/22 10:27:45;;;;;;;;;;;21.90;47.40;;;;;;5078081;28;19985;-57
2023/07/22 10:30:12;;;;;;;;;;;21.90;47.40;;;;;;5099455;28;19947;-57
2023/07/22 10:32:39;;;;;;;;;;;21.90;47.30;;;;;;5108219;28;19977;-57
2023/07/22 10:35:11;;;;;;;;;;;21.90;47.30;;;;;;5077090;28;19932;-57
2023/07/22 10:37:38;;;;;;;;;;;21.90;47.30;;;;;;5082766;28;19930;-57
2023/07/22 10:40:18;;;;;;;;;;;21.90;47.20;;;;;;5083576;28;19959;-58
2023/07/22 10:42:51;;;;;;;;;;;21.90;47.20;;;;;;5098415;28;20034;-57
2023/07/22 10:45:25;;;;;;;;;;;21.90;47.20;;;;;;5088722;28;19928;-56
2023/07/22 10:48:00;;;;;;;;;;;21.90;47.20;;;;;;5081507;28;19990;-57
2023/07/22 10:50:32;;;;;;;;;;;21.90;47.10;;;;;;5105259;28;20012;-55
2023/07/22 10:52:59;;;;;;;;;;;21.90;47.10;;;;;;5088053;28;19931;-55
2023/07/22 10:55:26;;;;;;;;;;;21.90;47.00;;;;;;5103426;28;19928;-57
2023/07/22 10:57:55;;;;;;;;;;;21.90;47.00;;;;;;5087355;28;19924;-56
2023/07/22 11:00:22;;;;;;;;;;;21.90;47.00;;;;;;5099538;28;19985;-58
2023/07/22 11:02:53;;;;;;;;;;;21.90;47.00;;;;;;5108566;28;19966;-56
2023/07/22 11:05:20;;;;;;;;;;;21.90;47.00;;;;;;5087238;28;19955;-58
2023/07/22 11:07:48;;;;;;;;;;;21.90;46.90;;;;;;5113423;28;19991;-55
2023/07/22 11:10:15;;;;;;;;;;;21.90;46.80;;;;;;5110333;28;19932;-56
2023/07/22 11:12:43;;;;;;;;;;;21.90;46.80;;;;;;5084658;28;19985;-54
2023/07/22 11:15:10;;;;;;;;;;;21.90;46.80;;;;;;5082230;28;20124;-56
2023/07/22 11:17:37;;;;;;;;;;;21.90;46.70;;;;;;5086808;28;19924;-58
2023/07/22 11:20:04;;;;;;;;;;;21.90;46.70;;;;;;5099605;28;19928;-55
2023/07/22 11:22:31;;;;;;;;;;;21.90;46.60;;;;;;5105934;28;19924;-57
2023/07/22 11:24:59;;;;;;;;;;;21.90;46.60;;;;;;5082782;28;19931;-57
2023/07/22 11:27:26;;;;;;;;;;;21.90;46.60;;;;;;5089077;28;19981;-55
2023/07/22 11:29:53;;;;;;;;;;;21.90;46.70;;;;;;5107382;28;19928;-56
2023/07/22 11:32:21;;;;;;;;;;;21.90;46.80;;;;;;5094291;28;19930;-55
2023/07/22 11:34:47;;;;;;;;;;;21.90;46.80;;;;;;5082461;28;19931;-56
2023/07/22 11:37:15;;;;;;;;;;;21.90;46.80;;;;;;5104167;28;20022;-55
2023/07/22 11:39:42;;;;;;;;;;;21.90;46.80;;;;;;5104584;28;19962;-57
2023/07/22 11:42:10;;;;;;;;;;;21.90;46.80;;;;;;5105148;28;19942;-58
2023/07/22 11:44:37;;;;;;;;;;;21.90;46.60;;;;;;5074284;28;19963;-59
2023/07/22 11:47:04;;;;;;;;;;;22.00;46.50;;;;;;5085110;28;19973;-56
2023/07/22 11:49:31;;;;;;;;;;;22.00;46.40;;;;;;5091801;28;19932;-57
2023/07/22 11:51:58;;;;;;;;;;;21.90;46.40;;;;;;5110660;28;19924;-61
2023/07/22 11:54:25;;;;;;;;;;;21.90;46.40;;;;;;5088825;27;20014;-58
2023/07/22 11:56:52;;;;;;;;;;;21.90;46.50;;;;;;5081536;28;19931;-56
2023/07/22 11:59:34;;;;;;;;;;;21.90;46.40;;;;;;5078895;28;19924;-60
2023/07/22 12:02:01;;;;;;;;;;;22.00;46.60;;;;;;5086820;28;19924;-61
2023/07/22 12:04:28;;;;;;;;;;;22.00;46.70;;;;;;5101632;28;20275;-59
2023/07/22 12:06:55;;;;;;;;;;;22.00;46.70;;;;;;5102690;28;20180;-60
2023/07/22 12:09:23;;;;;;;;;;;22.00;47.10;;;;;;5091922;28;19947;-58
2023/07/22 12:11:51;;;;;;;;;;;22.00;46.80;;;;;;5091325;28;19928;-57
2023/07/22 12:14:18;;;;;;;;;;;22.00;46.90;;;;;;5089833;28;19924;-57
2023/07/22 12:16:46;;;;;;;;;;;22.00;47.00;;;;;;5087715;28;19924;-59
2023/07/22 12:19:13;;;;;;;;;;;22.00;47.00;;;;;;5081850;28;19927;-58
2023/07/22 12:21:40;;;;;;;;;;;22.00;47.20;;;;;;5091690;28;19992;-56
2023/07/22 12:24:06;;;;;;;;;;;22.00;47.10;;;;;;5087432;28;19953;-58
2023/07/22 12:26:33;;;;;;;;;;;22.10;47.10;;;;;;5087276;28;19924;-59
2023/07/22 12:29:00;;;;;;;;;;;22.10;47.00;;;;;;5101546;28;19924;-58
2023/07/22 12:31:27;;;;;;;;;;;22.10;46.90;;;;;;5103950;27;19931;-57
2023/07/22 12:33:55;;;;;;;;;;;22.00;46.70;;;;;;5102041;28;19935;-54
2023/07/22 12:36:22;;;;;;;;;;;22.10;46.80;;;;;;5101559;28;19931;-57
2023/07/22 12:38:48;;;;;;;;;;;22.00;46.60;;;;;;5107906;28;19932;-59
2023/07/22 12:41:15;;;;;;;;;;;22.00;46.60;;;;;;5086641;28;19920;-59
2023/07/22 12:43:42;;;;;;;;;;;22.00;46.60;;;;;;5107208;28;19924;-59
2023/07/22 12:46:09;;;;;;;;;;;22.00;46.70;;;;;;5093659;28;19926;-59
2023/07/22 12:48:36;;;;;;;;;;;22.00;46.60;;;;;;5092459;28;19970;-60
2023/07/22 12:51:04;;;;;;;;;;;22.00;46.60;;;;;;5092079;28;19946;-62
2023/07/22 12:53:30;;;;;;;;;;;22.00;46.50;;;;;;5086891;28;19928;-61
2023/07/22 12:55:57;;;;;;;;;;;22.00;46.60;;;;;;5103048;28;20384;-55
2023/07/22 12:58:24;;;;;;;;;;;22.00;46.70;;;;;;5094448;28;19927;-55
2023/07/22 13:00:51;;;;;;;;;;;22.00;46.90;;;;;;5087453;28;19923;-52
2023/07/22 13:03:18;;;;;;;;;;;22.00;46.90;;;;;;5104418;28;19985;-55
2023/07/22 13:05:44;;;;;;;;;;;22.00;47.00;;;;;;5081624;28;19931;-54
2023/07/22 13:08:12;;;;;;;;;;;22.00;47.00;;;;;;5090021;28;20118;-56
2023/07/22 13:10:43;;;;;;;;;;;22.00;47.00;;;;;;5079590;28;19928;-55
2023/07/22 13:13:10;;;;;;;;;;;22.00;47.00;;;;;;5102878;28;19930;-56
2023/07/22 13:15:37;;;;;;;;;;;22.00;47.00;;;;;;5093464;28;19937;-56
2023/07/22 13:18:04;;;;;;;;;;;22.00;47.00;;;;;;5111154;28;19924;-56
2023/07/22 13:20:30;;;;;;;;;;;22.00;47.00;;;;;;5089410;28;19927;-62
2023/07/22 13:22:57;;;;;;;;;;;22.00;47.00;;;;;;5111099;28;19928;-55
2023/07/22 13:25:25;;;;;;;;;;;22.00;47.10;;;;;;5089291;28;19989;-52
2023/07/22 13:27:52;;;;;;;;;;;22.00;47.10;;;;;;5109096;28;19931;-48
2023/07/22 13:30:19;;;;;;;;;;;22.00;47.10;;;;;;5098090;28;19924;-56
2023/07/22 13:32:46;;;;;;;;;;;22.00;47.20;;;;;;5090241;28;19924;-56
2023/07/22 13:35:13;;;;;;;;;;;22.00;47.20;;;;;;5109336;28;19934;-54
2023/07/22 13:37:40;;;;;;;;;;;22.00;47.30;;;;;;5090553;28;19957;-56
2023/07/22 13:40:10;;;;;;;;;;;22.00;47.30;;;;;;5109778;28;19924;-53
2023/07/22 13:42:38;;;;;;;;;;;22.00;47.30;;;;;;5106928;28;19997;-55
2023/07/22 13:45:06;;;;;;;;;;;22.00;47.40;;;;;;5084061;28;19928;-54
2023/07/22 13:47:33;;;;;;;;;;;22.10;47.50;;;;;;5106737;28;19928;-56
2023/07/22 13:50:00;;;;;;;;;;;22.00;47.40;;;;;;5097137;28;20257;-55
2023/07/22 13:52:26;;;;;;;;;;;22.10;47.50;;;;;;5078923;28;19924;-52
2023/07/22 13:54:53;;;;;;;;;;;22.10;47.60;;;;;;5089162;28;19931;-55
2023/07/22 13:57:20;;;;;;;;;;;22.10;47.50;;;;;;5102626;28;19930;-56
2023/07/22 13:59:48;;;;;;;;;;;22.10;47.60;;;;;;5093413;28;19923;-55
2023/07/22 14:02:15;;;;;;;;;;;22.10;47.60;;;;;;5066952;28;19971;-57
2023/07/22 14:04:41;;;;;;;;;;;22.10;47.70;;;;;;5089451;28;19977;-55
2023/07/22 14:07:08;;;;;;;;;;;22.10;47.70;;;;;;5108489;28;19928;-56
2023/07/22 14:09:35;;;;;;;;;;;22.10;47.70;;;;;;5111512;28;19923;-55
2023/07/22 14:12:03;;;;;;;;;;;22.10;47.70;;;;;;5093765;28;19947;-55
2023/07/22 14:14:29;;;;;;;;;;;22.10;47.70;;;;;;5093709;28;20249;-56
2023/07/22 14:16:58;;;;;;;;;;;22.10;47.70;;;;;;5085104;28;19927;-55